createdAt,value
2019-05-01T00:02:01.241Z,6.30
2019-05-01T00:04:42.094Z,6.30
2019-05-01T00:07:17.448Z,6.20
2019-05-01T00:09:48.177Z,6.20
2019-05-01T00:12:18.313Z,6.10
2019-05-01T00:14:48.611Z,6.10
2019-05-01T00:17:19.792Z,6.20
2019-05-01T00:19:50.121Z,6.20
2019-05-01T00:22:20.316Z,6.20
2019-05-01T00:24:50.460Z,6.20
2019-05-01T00:27:21.018Z,6.20
2019-05-01T00:29:51.285Z,6.20
2019-05-01T00:32:21.563Z,6.30
2019-05-01T00:34:51.999Z,6.30
2019-05-01T00:37:22.865Z,6.30
2019-05-01T00:39:53.176Z,6.30
2019-05-01T00:42:23.328Z,6.30
2019-05-01T00:44:53.613Z,6.40
2019-05-01T00:47:24.008Z,6.40
2019-05-01T00:49:54.369Z,6.40
2019-05-01T00:52:24.780Z,6.50
2019-05-01T00:54:56.704Z,6.50
2019-05-01T00:57:28.833Z,6.50
2019-05-01T01:00:03.671Z,6.50
2019-05-01T01:02:38.865Z,6.50
2019-05-01T01:05:09.405Z,6.50
2019-05-01T01:07:39.616Z,6.50
2019-05-01T01:10:09.954Z,6.50
2019-05-01T01:12:40.242Z,6.50
2019-05-01T01:15:10.888Z,6.50
2019-05-01T01:17:41.092Z,6.50
2019-05-01T01:20:11.449Z,6.50
2019-05-01T01:22:41.863Z,6.50
2019-05-01T01:25:12.378Z,6.50
2019-05-01T01:27:42.800Z,6.50
2019-05-01T01:30:13.453Z,6.50
2019-05-01T01:32:44.961Z,6.50
2019-05-01T01:35:15.237Z,6.50
2019-05-01T01:37:45.517Z,6.50
2019-05-01T01:40:15.994Z,6.40
2019-05-01T01:42:48.453Z,6.40
2019-05-01T01:45:35.213Z,6.40
2019-05-01T01:48:09.924Z,6.40
2019-05-01T01:50:44.771Z,6.40
2019-05-01T01:53:18.200Z,6.40
2019-05-01T01:55:48.972Z,6.40
2019-05-01T01:58:20.397Z,6.30
2019-05-01T02:00:52.816Z,6.40
2019-05-01T02:03:25.098Z,6.30
2019-05-01T02:05:55.437Z,6.30
2019-05-01T02:08:25.895Z,6.30
2019-05-01T02:10:56.430Z,6.30
2019-05-01T02:13:26.958Z,6.20
2019-05-01T02:15:57.257Z,6.20
2019-05-01T02:18:27.722Z,6.10
2019-05-01T02:20:58.189Z,6.10
2019-05-01T02:23:28.685Z,6.10
2019-05-01T02:25:59.106Z,6.20
2019-05-01T02:28:31.357Z,6.20
2019-05-01T02:31:27.270Z,6.20
2019-05-01T02:33:48.122Z,6.20
2019-05-01T02:36:21.497Z,6.20
2019-05-01T02:38:54.228Z,6.20
2019-05-01T02:41:27.587Z,6.10
2019-05-01T02:44:01.152Z,6.20
2019-05-01T02:46:34.255Z,6.10
2019-05-01T02:49:07.799Z,6.10
2019-05-01T02:51:41.694Z,6.10
2019-05-01T02:54:14.354Z,6.10
2019-05-01T02:56:54.521Z,6.10
2019-05-01T02:59:27.701Z,6.10
2019-05-01T03:01:59.733Z,6.20
2019-05-01T03:04:31.116Z,6.20
2019-05-01T03:07:02.794Z,6.20
2019-05-01T03:09:34.418Z,6.20
2019-05-01T03:12:06.243Z,6.20
2019-05-01T03:14:39.702Z,6.20
2019-05-01T03:17:29.942Z,6.20
2019-05-01T03:20:05.755Z,6.20
2019-05-01T03:22:47.172Z,6.20
2019-05-01T03:25:18.169Z,6.20
2019-05-01T03:27:48.511Z,6.10
2019-05-01T03:30:19.234Z,6.10
2019-05-01T03:32:49.867Z,6.10
2019-05-01T03:35:20.390Z,6.20
2019-05-01T03:37:51.116Z,6.20
2019-05-01T03:40:21.945Z,6.20
2019-05-01T03:42:52.390Z,6.20
2019-05-01T03:45:23.549Z,6.30
2019-05-01T03:47:54.445Z,6.30
2019-05-01T03:50:25.006Z,6.30
2019-05-01T03:52:55.514Z,6.30
2019-05-01T03:55:25.938Z,6.30
2019-05-01T03:57:56.650Z,6.40
2019-05-01T04:00:31.921Z,6.40
2019-05-01T04:03:12.863Z,6.40
2019-05-01T04:05:43.923Z,6.40
2019-05-01T04:08:14.485Z,6.40
2019-05-01T04:10:45.918Z,6.40
2019-05-01T04:13:16.369Z,6.40
2019-05-01T04:15:46.998Z,6.40
2019-05-01T04:18:17.726Z,6.50
2019-05-01T04:20:48.937Z,6.50
2019-05-01T04:23:19.301Z,6.50
2019-05-01T04:25:50.611Z,6.60
2019-05-01T04:28:26.112Z,6.60
2019-05-01T04:31:03.945Z,6.70
2019-05-01T04:33:35.641Z,6.80
2019-05-01T04:36:16.545Z,6.80
2019-05-01T04:38:46.992Z,6.80
2019-05-01T04:41:17.829Z,6.90
2019-05-01T04:43:48.455Z,6.90
2019-05-01T04:46:19.105Z,7.00
2019-05-01T04:48:49.851Z,7.00
2019-05-01T04:51:20.277Z,7.00
2019-05-01T04:53:51.357Z,7.10
2019-05-01T04:56:21.818Z,7.20
2019-05-01T04:58:52.467Z,7.20
2019-05-01T05:01:22.939Z,7.30
2019-05-01T05:03:54.222Z,7.40
2019-05-01T05:06:24.967Z,7.40
2019-05-01T05:08:55.877Z,7.40
2019-05-01T05:11:30.741Z,7.50
2019-05-01T05:14:05.813Z,7.60
2019-05-01T05:16:47.352Z,7.70
2019-05-01T05:19:17.702Z,7.70
2019-05-01T05:21:48.675Z,7.80
2019-05-01T05:24:19.337Z,7.80
2019-05-01T05:26:50.189Z,8.00
2019-05-01T05:29:20.745Z,8.00
2019-05-01T05:31:53.205Z,8.10
2019-05-01T05:34:26.506Z,8.10
2019-05-01T05:37:00.253Z,8.20
2019-05-01T05:39:34.145Z,8.30
2019-05-01T05:42:05.647Z,8.40
2019-05-01T05:44:36.296Z,8.40
2019-05-01T05:47:06.584Z,8.50
2019-05-01T05:49:37.113Z,8.50
2019-05-01T05:52:12.361Z,8.60
2019-05-01T05:54:53.269Z,8.70
2019-05-01T05:57:31.026Z,8.80
2019-05-01T06:00:07.653Z,8.90
2019-05-01T06:02:45.621Z,9.00
2019-05-01T06:05:19.488Z,9.10
2019-05-01T06:08:10.699Z,9.10
2019-05-01T06:11:00.705Z,9.10
2019-05-01T06:13:42.200Z,9.10
2019-05-01T06:16:19.724Z,9.10
2019-05-01T06:18:54.577Z,9.20
2019-05-01T06:21:45.240Z,9.10
2019-05-01T06:24:21.256Z,9.20
2019-05-01T06:26:52.641Z,9.30
2019-05-01T06:29:23.311Z,9.30
2019-05-01T06:31:54.027Z,9.40
2019-05-01T06:34:28.663Z,9.40
2019-05-01T06:36:57.909Z,9.50
2019-05-01T06:39:28.465Z,9.40
2019-05-01T06:41:59.222Z,9.40
2019-05-01T06:44:39.257Z,9.40
2019-05-01T06:47:11.179Z,9.50
2019-05-01T06:49:49.494Z,9.50
2019-05-01T06:52:24.994Z,9.50
2019-05-01T06:54:57.519Z,9.60
2019-05-01T06:57:28.856Z,9.60
2019-05-01T07:00:03.145Z,9.70
2019-05-01T07:02:35.225Z,9.80
2019-05-01T07:05:09.268Z,9.80
2019-05-01T07:07:38.847Z,9.90
2019-05-01T07:10:09.505Z,9.90
2019-05-01T07:12:40.421Z,9.90
2019-05-01T07:15:10.796Z,9.90
2019-05-01T07:17:43.931Z,10.00
2019-05-01T07:20:16.706Z,10.00
2019-05-01T07:22:47.908Z,9.90
2019-05-01T07:25:18.600Z,10.00
2019-05-01T07:27:49.190Z,10.10
2019-05-01T07:30:24.991Z,10.10
2019-05-01T07:32:55.785Z,10.20
2019-05-01T07:35:26.534Z,10.20
2019-05-01T07:37:57.584Z,10.30
2019-05-01T07:40:30.024Z,10.30
2019-05-01T07:43:05.041Z,10.30
2019-05-01T07:45:38.903Z,10.30
2019-05-01T07:48:09.668Z,10.40
2019-05-01T07:50:40.332Z,10.50
2019-05-01T07:53:11.188Z,10.40
2019-05-01T07:55:41.736Z,10.50
2019-05-01T07:58:15.880Z,10.50
2019-05-01T08:00:50.788Z,10.50
2019-05-01T08:03:21.001Z,10.60
2019-05-01T08:05:51.483Z,10.60
2019-05-01T08:08:21.776Z,10.60
2019-05-01T08:10:52.121Z,10.70
2019-05-01T08:13:22.541Z,10.70
2019-05-01T08:15:52.832Z,10.80
2019-05-01T08:18:43.172Z,10.90
2019-05-01T08:21:33.954Z,10.90
2019-05-01T08:24:04.462Z,10.90
2019-05-01T08:26:34.681Z,10.90
2019-05-01T08:29:23.871Z,11.00
2019-05-01T08:32:03.480Z,11.20
2019-05-01T08:34:48.239Z,11.30
2019-05-01T08:37:08.353Z,11.50
2019-05-01T08:39:39.669Z,11.50
2019-05-01T08:42:11.012Z,11.60
2019-05-01T08:44:52.228Z,11.60
2019-05-01T08:47:27.749Z,11.80
2019-05-01T08:50:06.154Z,11.70
2019-05-01T08:52:36.537Z,11.70
2019-05-01T08:55:09.420Z,11.80
2019-05-01T08:57:39.764Z,11.90
2019-05-01T09:00:10.878Z,11.90
2019-05-01T09:02:43.306Z,12.00
2019-05-01T09:05:27.803Z,12.10
2019-05-01T09:07:45.790Z,12.00
2019-05-01T09:10:17.059Z,12.10
2019-05-01T09:12:51.777Z,12.10
2019-05-01T09:15:20.469Z,12.20
2019-05-01T09:17:50.961Z,12.20
2019-05-01T09:20:22.930Z,12.30
2019-05-01T09:22:53.387Z,12.30
2019-05-01T09:25:25.465Z,12.40
2019-05-01T09:27:59.528Z,12.40
2019-05-01T09:30:31.337Z,12.40
2019-05-01T09:33:01.837Z,12.40
2019-05-01T09:35:32.445Z,12.40
2019-05-01T09:38:02.940Z,12.40
2019-05-01T09:40:33.785Z,12.40
2019-05-01T09:43:04.244Z,12.40
2019-05-01T09:45:34.621Z,12.50
2019-05-01T09:48:06.237Z,12.40
2019-05-01T09:50:38.433Z,12.40
2019-05-01T09:53:19.028Z,12.40
2019-05-01T09:55:50.804Z,12.40
2019-05-01T09:58:21.045Z,12.40
2019-05-01T10:00:53.968Z,12.30
2019-05-01T10:03:24.468Z,12.30
2019-05-01T10:05:54.969Z,12.20
2019-05-01T10:08:25.541Z,12.20
2019-05-01T10:10:59.911Z,12.20
2019-05-01T10:16:06.856Z,12.10
2019-05-01T10:18:37.419Z,12.10
2019-05-01T10:21:07.792Z,12.00
2019-05-01T10:23:38.309Z,12.00
2019-05-01T10:26:10.245Z,11.80
2019-05-01T10:28:44.959Z,11.70
2019-05-01T10:31:16.466Z,11.70
2019-05-01T10:33:48.489Z,11.70
2019-05-01T10:36:32.409Z,11.60
2019-05-01T10:39:04.673Z,11.60
2019-05-01T10:41:35.115Z,11.50
2019-05-01T10:44:05.579Z,11.50
2019-05-01T10:46:35.870Z,11.40
2019-05-01T10:49:06.505Z,11.40
2019-05-01T10:51:37.057Z,11.40
2019-05-01T10:54:07.484Z,11.30
2019-05-01T10:56:37.980Z,11.30
2019-05-01T10:59:08.550Z,11.40
2019-05-01T11:01:43.714Z,11.40
2019-05-01T11:04:14.537Z,11.50
2019-05-01T11:06:45.181Z,11.50
2019-05-01T11:09:15.768Z,11.50
2019-05-01T11:11:46.077Z,11.50
2019-05-01T11:14:16.657Z,11.50
2019-05-01T11:16:47.037Z,11.50
2019-05-01T11:19:17.621Z,11.60
2019-05-01T11:21:48.117Z,11.60
2019-05-01T11:24:18.673Z,11.70
2019-05-01T11:26:49.488Z,11.80
2019-05-01T11:29:19.697Z,11.90
2019-05-01T11:31:54.872Z,12.20
2019-05-01T11:34:33.048Z,12.70
2019-05-01T11:37:05.284Z,13.20
2019-05-01T11:39:40.865Z,13.30
2019-05-01T11:42:11.213Z,13.40
2019-05-01T11:44:41.709Z,13.50
2019-05-01T11:47:12.185Z,13.80
2019-05-01T11:49:42.606Z,13.90
2019-05-01T11:52:13.197Z,13.90
2019-05-01T11:54:43.496Z,14.10
2019-05-01T11:57:13.796Z,14.40
2019-05-01T11:59:44.213Z,14.60
2019-05-01T12:02:14.840Z,14.90
2019-05-01T12:04:45.319Z,15.10
2019-05-01T12:07:15.685Z,15.30
2019-05-01T12:09:46.032Z,15.30
2019-05-01T12:12:18.235Z,14.90
2019-05-01T12:14:48.675Z,14.90
2019-05-01T12:17:26.317Z,14.90
2019-05-01T12:19:56.744Z,14.70
2019-05-01T12:22:27.141Z,14.70
2019-05-01T12:24:57.502Z,14.80
2019-05-01T12:27:28.022Z,14.80
2019-05-01T12:29:58.369Z,14.70
2019-05-01T12:32:28.933Z,14.80
2019-05-01T12:34:59.413Z,14.70
2019-05-01T12:37:34.656Z,14.80
2019-05-01T12:40:07.752Z,14.90
2019-05-01T12:42:38.405Z,14.90
2019-05-01T12:45:10.629Z,14.80
2019-05-01T12:47:51.799Z,14.80
2019-05-01T12:50:22.327Z,14.90
2019-05-01T12:53:00.372Z,14.90
2019-05-01T12:55:35.156Z,14.90
2019-05-01T12:58:05.497Z,14.80
2019-05-01T13:00:41.775Z,14.70
2019-05-01T13:03:12.438Z,14.80
2019-05-01T13:05:42.933Z,14.80
2019-05-01T13:08:13.333Z,14.90
2019-05-01T13:10:43.949Z,15.10
2019-05-01T13:13:14.434Z,15.30
2019-05-01T13:15:44.957Z,15.40
2019-05-01T13:18:15.421Z,15.60
2019-05-01T13:20:45.873Z,15.70
2019-05-01T13:23:16.349Z,15.90
2019-05-01T13:25:47.668Z,16.10
2019-05-01T13:28:38.181Z,16.10
2019-05-01T13:31:12.634Z,16.20
2019-05-01T13:33:43.309Z,16.20
2019-05-01T13:36:13.877Z,16.20
2019-05-01T13:38:44.461Z,16.10
2019-05-01T13:41:14.904Z,16.00
2019-05-01T13:43:45.537Z,16.00
2019-05-01T13:46:15.768Z,16.00
2019-05-01T13:48:46.109Z,15.90
2019-05-01T13:51:16.417Z,15.90
2019-05-01T13:53:46.625Z,15.80
2019-05-01T13:56:17.132Z,15.70
2019-05-01T13:58:47.509Z,15.60
2019-05-01T14:01:18.412Z,15.40
2019-05-01T14:03:48.634Z,15.20
2019-05-01T14:06:18.925Z,15.00
2019-05-01T14:08:49.420Z,14.80
2019-05-01T14:11:19.948Z,14.70
2019-05-01T14:13:50.172Z,14.50
2019-05-01T14:16:20.682Z,14.50
2019-05-01T14:18:50.909Z,14.40
2019-05-01T14:21:23.033Z,14.20
2019-05-01T14:24:00.918Z,14.20
2019-05-01T14:26:32.477Z,14.20
2019-05-01T14:29:03.114Z,14.20
2019-05-01T14:31:33.665Z,14.30
2019-05-01T14:34:04.585Z,14.20
2019-05-01T14:36:35.076Z,14.20
2019-05-01T14:39:07.607Z,14.10
2019-05-01T14:41:38.064Z,14.00
2019-05-01T14:44:08.565Z,13.80
2019-05-01T14:46:38.981Z,13.70
2019-05-01T14:49:09.332Z,13.60
2019-05-01T14:51:39.813Z,13.40
2019-05-01T14:54:10.409Z,13.30
2019-05-01T14:56:43.250Z,13.20
2019-05-01T14:59:12.937Z,13.20
2019-05-01T15:01:43.597Z,13.10
2019-05-01T15:04:14.045Z,13.00
2019-05-01T15:06:44.553Z,13.00
2019-05-01T15:09:14.978Z,12.90
2019-05-01T15:11:46.069Z,12.90
2019-05-01T15:14:20.873Z,12.80
2019-05-01T15:16:55.533Z,12.80
2019-05-01T15:19:27.660Z,12.60
2019-05-01T15:21:58.283Z,12.50
2019-05-01T15:24:28.833Z,12.60
2019-05-01T15:26:59.325Z,12.50
2019-05-01T15:29:29.951Z,12.40
2019-05-01T15:32:00.513Z,12.30
2019-05-01T15:34:31.012Z,12.30
2019-05-01T15:37:01.336Z,12.30
2019-05-01T15:39:33.656Z,12.20
2019-05-01T15:42:22.036Z,12.20
2019-05-01T15:44:52.589Z,12.10
2019-05-01T15:47:23.086Z,12.20
2019-05-01T15:49:54.265Z,12.20
2019-05-01T15:52:24.561Z,12.10
2019-05-01T15:54:55.217Z,12.10
2019-05-01T15:57:25.515Z,12.10
2019-05-01T15:59:55.797Z,12.00
2019-05-01T16:02:26.129Z,12.00
2019-05-01T16:04:56.652Z,11.90
2019-05-01T16:07:27.847Z,11.90
2019-05-01T16:09:58.273Z,11.90
2019-05-01T16:12:30.477Z,11.80
2019-05-01T16:15:00.825Z,11.80
2019-05-01T16:17:31.128Z,11.80
2019-05-01T16:20:01.536Z,11.80
2019-05-01T16:22:31.841Z,11.80
2019-05-01T16:25:02.050Z,11.70
2019-05-01T16:27:32.561Z,11.70
2019-05-01T16:30:03.780Z,11.60
2019-05-01T16:32:34.234Z,11.60
2019-05-01T16:35:05.866Z,11.50
2019-05-01T16:37:36.613Z,11.40
2019-05-01T16:40:09.105Z,11.30
2019-05-01T16:42:39.655Z,11.20
2019-05-01T16:45:11.369Z,11.10
2019-05-01T16:47:41.969Z,11.10
2019-05-01T16:50:12.361Z,11.00
2019-05-01T16:52:43.696Z,10.90
2019-05-01T16:55:14.813Z,10.80
2019-05-01T16:57:45.381Z,10.70
2019-05-01T17:00:18.962Z,10.70
2019-05-01T17:02:59.284Z,10.50
2019-05-01T17:05:31.217Z,10.60
2019-05-01T17:08:15.673Z,10.60
2019-05-01T17:10:47.711Z,10.50
2019-05-01T17:13:18.261Z,10.50
2019-05-01T17:15:50.361Z,10.50
2019-05-01T17:18:21.053Z,10.50
2019-05-01T17:20:51.448Z,10.50
2019-05-01T17:23:22.637Z,10.50
2019-05-01T17:25:52.844Z,10.40
2019-05-01T17:28:23.298Z,10.40
2019-05-01T17:30:55.497Z,10.50
2019-05-01T17:33:26.172Z,10.40
2019-05-01T17:35:56.817Z,10.40
2019-05-01T17:38:27.308Z,10.40
2019-05-01T17:40:57.789Z,10.30
2019-05-01T17:43:28.385Z,10.40
2019-05-01T17:45:58.865Z,10.30
2019-05-01T17:48:33.674Z,10.30
2019-05-01T17:51:01.943Z,10.30
2019-05-01T17:53:32.377Z,10.20
2019-05-01T17:56:02.752Z,10.10
2019-05-01T17:58:33.319Z,10.00
2019-05-01T18:01:08.216Z,10.00
2019-05-01T18:03:46.077Z,10.00
2019-05-01T18:06:18.041Z,9.90
2019-05-01T18:08:48.593Z,9.80
2019-05-01T18:11:19.037Z,9.80
2019-05-01T18:13:49.252Z,9.70
2019-05-01T18:16:19.616Z,9.70
2019-05-01T18:18:50.121Z,9.70
2019-05-01T18:21:20.656Z,9.70
2019-05-01T18:24:08.701Z,9.60
2019-05-01T18:26:46.745Z,9.60
2019-05-01T18:29:21.836Z,9.60
2019-05-01T18:31:52.540Z,9.50
2019-05-01T18:34:24.548Z,9.40
2019-05-01T18:37:02.893Z,9.40
2019-05-01T18:39:34.839Z,9.30
2019-05-01T18:42:15.673Z,9.20
2019-05-01T18:44:47.433Z,9.10
2019-05-01T18:47:18.009Z,9.10
2019-05-01T18:49:48.534Z,9.10
2019-05-01T18:52:19.229Z,9.00
2019-05-01T18:54:49.520Z,9.00
2019-05-01T18:57:19.912Z,9.00
2019-05-01T18:59:50.226Z,9.00
2019-05-01T19:02:24.860Z,8.90
2019-05-01T19:04:52.758Z,9.00
2019-05-01T19:07:23.322Z,9.00
2019-05-01T19:09:53.878Z,8.90
2019-05-01T19:12:24.461Z,8.90
2019-05-01T19:14:55.012Z,8.90
2019-05-01T19:17:25.277Z,8.80
2019-05-01T19:19:55.742Z,8.70
2019-05-01T19:22:26.052Z,8.70
2019-05-01T19:24:57.214Z,8.60
2019-05-01T19:27:28.107Z,8.60
2019-05-01T19:29:58.254Z,8.60
2019-05-01T19:32:29.002Z,8.60
2019-05-01T19:34:59.397Z,8.60
2019-05-01T19:37:31.023Z,8.60
2019-05-01T19:40:02.039Z,8.60
2019-05-01T19:42:32.443Z,8.60
2019-05-01T19:45:02.957Z,8.50
2019-05-01T19:47:33.437Z,8.40
2019-05-01T19:50:09.356Z,8.40
2019-05-01T19:52:39.878Z,8.40
2019-05-01T19:55:10.588Z,8.40
2019-05-01T19:57:41.121Z,8.40
2019-05-01T20:00:12.300Z,8.30
2019-05-01T20:02:42.754Z,8.30
2019-05-01T20:05:13.338Z,8.20
2019-05-01T20:07:43.917Z,8.10
2019-05-01T20:10:14.805Z,8.10
2019-05-01T20:12:45.284Z,8.10
2019-05-01T20:15:20.102Z,8.00
2019-05-01T20:17:47.905Z,7.90
2019-05-01T20:20:18.662Z,7.90
2019-05-01T20:22:53.393Z,7.90
2019-05-01T20:25:21.301Z,7.90
2019-05-01T20:27:53.228Z,7.80
2019-05-01T20:30:23.997Z,7.80
2019-05-01T20:32:58.185Z,7.90
2019-05-01T20:35:28.549Z,7.90
2019-05-01T20:37:58.429Z,7.90
2019-05-01T20:40:28.809Z,7.90
2019-05-01T20:43:01.035Z,7.90
2019-05-01T20:45:31.768Z,7.90
2019-05-01T20:48:02.228Z,7.90
2019-05-01T20:50:32.461Z,7.80
2019-05-01T20:53:03.120Z,7.70
2019-05-01T20:55:33.617Z,7.70
2019-05-01T20:58:17.625Z,7.70
2019-05-01T21:00:53.484Z,7.60
2019-05-01T21:03:21.469Z,7.60
2019-05-01T21:06:02.973Z,7.60
2019-05-01T21:08:42.561Z,7.60
2019-05-01T21:11:20.436Z,7.50
2019-05-01T21:13:56.652Z,7.50
2019-05-01T21:16:22.808Z,7.50
2019-05-01T21:18:52.949Z,7.40
2019-05-01T21:21:24.065Z,7.40
2019-05-01T21:23:56.750Z,7.30
2019-05-01T21:26:27.278Z,7.40
2019-05-01T21:28:57.587Z,7.30
2019-05-01T21:31:27.864Z,7.30
2019-05-01T21:33:58.085Z,7.30
2019-05-01T21:36:28.309Z,7.30
2019-05-01T21:38:58.801Z,7.30
2019-05-01T21:41:29.009Z,7.30
2019-05-01T21:43:59.369Z,7.20
2019-05-01T21:46:30.083Z,7.20
2019-05-01T21:49:02.490Z,7.20
2019-05-01T21:51:32.886Z,7.10
2019-05-01T21:54:03.431Z,7.00
2019-05-01T21:56:36.960Z,7.10
2019-05-01T21:59:08.382Z,7.00
2019-05-01T22:01:38.713Z,7.00
2019-05-01T22:04:09.001Z,6.90
2019-05-01T22:06:39.424Z,6.90
2019-05-01T22:09:15.342Z,7.00
2019-05-01T22:11:45.070Z,6.90
2019-05-01T22:14:19.796Z,7.00
2019-05-01T22:16:53.220Z,6.90
2019-05-01T22:19:24.549Z,6.90
2019-05-01T22:21:59.204Z,6.90
2019-05-01T22:24:40.063Z,7.00
2019-05-01T22:27:12.380Z,7.00
2019-05-01T22:29:44.495Z,7.00
2019-05-01T22:32:16.357Z,6.90
2019-05-01T22:34:48.456Z,6.90
2019-05-01T22:37:18.923Z,6.80
2019-05-01T22:39:51.109Z,6.80
2019-05-01T22:42:21.515Z,6.90
2019-05-01T22:44:52.105Z,6.90
2019-05-01T22:47:22.525Z,6.90
2019-05-01T22:49:52.894Z,6.90
2019-05-01T22:52:23.288Z,6.90
2019-05-01T22:54:53.653Z,6.90
2019-05-01T22:57:24.145Z,6.90
2019-05-01T22:59:54.619Z,6.90
2019-05-01T23:02:43.669Z,6.80
2019-05-01T23:05:14.295Z,6.90
2019-05-01T23:07:44.933Z,6.90
2019-05-01T23:10:15.573Z,6.90
2019-05-01T23:12:45.965Z,6.90
2019-05-01T23:15:24.346Z,6.90
2019-05-01T23:17:54.781Z,6.90
2019-05-01T23:20:25.261Z,6.80
2019-05-01T23:22:55.889Z,6.90
2019-05-01T23:25:26.157Z,6.90
2019-05-01T23:27:59.649Z,6.90
2019-05-01T23:30:28.667Z,6.90
2019-05-01T23:32:59.154Z,6.90
2019-05-01T23:35:29.469Z,6.90
2019-05-01T23:37:59.772Z,6.90
2019-05-01T23:40:30.133Z,6.90
2019-05-01T23:43:00.653Z,6.90
2019-05-01T23:45:30.964Z,6.90
2019-05-01T23:48:01.177Z,6.90
2019-05-01T23:50:31.384Z,6.80
2019-05-01T23:53:01.866Z,6.80
2019-05-01T23:55:32.224Z,6.90
2019-05-01T23:58:02.839Z,6.90
